createdAt,value
2022-11-26T00:01:30.317Z,26.23
2022-11-26T00:04:03.087Z,17.57
2022-11-26T00:06:37.221Z,20.27
2022-11-26T00:09:08.692Z,25.43
2022-11-26T00:11:37.792Z,13.73
2022-11-26T00:14:15.189Z,26.77
2022-11-26T00:16:44.795Z,18.13
2022-11-26T00:19:14.084Z,15.13
2022-11-26T00:21:44.672Z,22.27
2022-11-26T00:24:26.753Z,22.00
2022-11-26T00:26:57.743Z,19.93
2022-11-26T00:29:26.855Z,17.33
2022-11-26T00:31:55.999Z,28.77
2022-11-26T00:34:25.096Z,17.30
2022-11-26T00:36:55.620Z,22.37
2022-11-26T00:39:25.795Z,25.73
2022-11-26T00:41:55.310Z,26.10
2022-11-26T00:44:26.588Z,20.93
2022-11-26T00:46:55.717Z,20.17
2022-11-26T00:49:25.072Z,25.70
2022-11-26T00:51:55.599Z,25.73
2022-11-26T00:54:25.281Z,18.20
2022-11-26T00:56:54.667Z,40.53
2022-11-26T00:59:24.381Z,26.50
2022-11-26T01:01:53.475Z,53.17
2022-11-26T01:04:22.586Z,22.77
2022-11-26T01:06:51.694Z,20.07
2022-11-26T01:09:23.233Z,29.13
2022-11-26T01:11:54.308Z,23.33
2022-11-26T01:14:24.408Z,48.63
2022-11-26T01:16:56.910Z,32.97
2022-11-26T01:19:26.051Z,17.47
2022-11-26T01:21:55.134Z,32.53
2022-11-26T01:24:25.506Z,27.30
2022-11-26T01:26:54.587Z,22.40
2022-11-26T01:29:23.650Z,19.50
2022-11-26T01:31:52.806Z,15.63
2022-11-26T01:34:21.946Z,28.93
2022-11-26T01:36:51.043Z,52.83
2022-11-26T01:39:21.955Z,81.60
2022-11-26T01:41:59.951Z,27.40
2022-11-26T01:44:32.160Z,26.07
2022-11-26T01:47:02.849Z,15.10
2022-11-26T01:49:33.925Z,30.30
2022-11-26T01:52:08.209Z,51.03
2022-11-26T01:54:41.790Z,25.43
2022-11-26T01:57:17.041Z,17.07
2022-11-26T01:59:50.851Z,14.10
2022-11-26T02:02:21.097Z,33.90
2022-11-26T02:05:01.924Z,23.63
2022-11-26T02:07:31.119Z,12.23
2022-11-26T02:10:00.787Z,30.70
2022-11-26T02:12:31.597Z,55.80
2022-11-26T02:15:00.937Z,28.40
2022-11-26T02:17:36.053Z,29.57
2022-11-26T02:20:34.226Z,17.13
2022-11-26T02:23:34.812Z,42.80
2022-11-26T02:26:40.303Z,15.90
2022-11-26T02:29:16.684Z,14.03
2022-11-26T02:31:54.354Z,10.70
2022-11-26T02:34:34.292Z,35.03
2022-11-26T02:37:10.266Z,22.07
2022-11-26T02:39:39.335Z,36.53
2022-11-26T02:42:26.187Z,25.20
2022-11-26T02:44:58.623Z,27.90
2022-11-26T02:47:30.560Z,31.23
2022-11-26T02:50:03.519Z,27.93
2022-11-26T02:52:34.834Z,51.20
2022-11-26T02:55:06.885Z,62.77
2022-11-26T02:57:44.632Z,55.77
2022-11-26T03:00:14.913Z,18.00
2022-11-26T03:02:49.779Z,28.57
2022-11-26T03:05:20.466Z,33.37
2022-11-26T03:07:52.787Z,12.27
2022-11-26T03:10:25.996Z,41.97
2022-11-26T03:12:55.445Z,27.63
2022-11-26T03:15:24.947Z,20.60
2022-11-26T03:17:55.390Z,29.10
2022-11-26T03:20:24.520Z,24.43
2022-11-26T03:22:53.696Z,17.63
2022-11-26T03:25:22.812Z,23.13
2022-11-26T03:27:51.904Z,18.43
2022-11-26T03:30:21.217Z,16.50
2022-11-26T03:32:50.299Z,31.13
2022-11-26T03:35:20.911Z,12.63
2022-11-26T03:37:50.015Z,23.03
2022-11-26T03:40:19.354Z,20.03
2022-11-26T03:42:48.410Z,16.53
2022-11-26T03:45:17.554Z,16.17
2022-11-26T03:47:46.644Z,33.67
2022-11-26T03:50:15.726Z,30.00
2022-11-26T03:52:46.200Z,20.37
2022-11-26T03:55:15.359Z,21.13
2022-11-26T03:57:44.421Z,21.73
2022-11-26T04:00:14.864Z,14.67
2022-11-26T04:02:44.009Z,23.73
2022-11-26T04:05:13.162Z,16.00
2022-11-26T04:07:42.321Z,20.37
2022-11-26T04:10:13.448Z,17.20
2022-11-26T04:12:42.488Z,27.47
2022-11-26T04:15:12.293Z,26.50
2022-11-26T04:17:41.337Z,38.33
2022-11-26T04:20:11.586Z,48.17
2022-11-26T04:22:40.670Z,32.47
2022-11-26T04:25:11.772Z,33.13
2022-11-26T04:27:40.933Z,29.03
2022-11-26T04:30:11.247Z,46.47
2022-11-26T04:32:40.373Z,43.13
2022-11-26T04:35:10.250Z,24.67
2022-11-26T04:37:39.313Z,36.33
2022-11-26T04:40:09.813Z,63.57
2022-11-26T04:42:40.362Z,40.53
2022-11-26T04:45:10.861Z,41.80
2022-11-26T04:47:42.899Z,39.63
2022-11-26T04:50:13.211Z,41.13
2022-11-26T04:52:42.307Z,72.83
2022-11-26T04:55:11.792Z,37.33
2022-11-26T04:57:42.566Z,41.30
2022-11-26T05:00:13.131Z,26.03
2022-11-26T05:02:42.239Z,79.90
2022-11-26T05:05:11.717Z,35.40
2022-11-26T05:07:41.170Z,38.13
2022-11-26T05:10:11.479Z,61.03
2022-11-26T05:12:41.911Z,46.90
2022-11-26T05:15:11.696Z,36.63
2022-11-26T05:17:40.772Z,74.93
2022-11-26T05:20:11.054Z,62.90
2022-11-26T05:22:40.163Z,79.50
2022-11-26T05:25:10.451Z,59.90
2022-11-26T05:27:40.911Z,35.50
2022-11-26T05:30:11.138Z,59.43
2022-11-26T05:32:40.217Z,51.60
2022-11-26T05:35:09.912Z,120.40
2022-11-26T05:37:39.092Z,37.07
2022-11-26T05:40:09.749Z,35.50
2022-11-26T05:42:39.141Z,32.70
2022-11-26T05:45:10.441Z,44.37
2022-11-26T05:47:39.503Z,73.50
2022-11-26T05:50:09.753Z,64.60
2022-11-26T05:52:38.965Z,31.67
2022-11-26T05:55:09.484Z,31.77
2022-11-26T05:57:39.239Z,57.20
2022-11-26T06:00:11.527Z,44.17
2022-11-26T06:02:44.018Z,58.17
2022-11-26T06:05:13.716Z,41.50
2022-11-26T06:07:45.119Z,66.27
2022-11-26T06:10:14.875Z,31.23
2022-11-26T06:12:43.975Z,14.07
2022-11-26T06:15:14.588Z,62.43
2022-11-26T06:17:43.675Z,59.57
2022-11-26T06:20:13.971Z,54.83
2022-11-26T06:22:44.517Z,29.00
2022-11-26T06:25:14.940Z,26.63
2022-11-26T06:27:44.417Z,24.80
2022-11-26T06:30:15.816Z,26.83
2022-11-26T06:32:45.135Z,46.57
2022-11-26T06:35:14.252Z,16.67
2022-11-26T06:37:43.612Z,47.10
2022-11-26T06:40:18.808Z,28.13
2022-11-26T06:42:51.039Z,56.87
2022-11-26T06:45:22.618Z,36.80
2022-11-26T06:47:53.003Z,29.63
2022-11-26T06:50:23.738Z,51.13
2022-11-26T06:52:53.269Z,52.47
2022-11-26T06:55:23.024Z,37.00
2022-11-26T06:57:52.213Z,31.17
2022-11-26T07:00:23.231Z,20.17
2022-11-26T07:02:52.455Z,47.23
2022-11-26T07:05:21.601Z,22.87
2022-11-26T07:07:50.725Z,30.63
2022-11-26T07:10:20.242Z,13.87
2022-11-26T07:12:49.255Z,43.20
2022-11-26T07:15:18.449Z,16.40
2022-11-26T07:17:48.869Z,20.83
2022-11-26T07:20:18.092Z,24.47
2022-11-26T07:22:47.512Z,21.33
2022-11-26T07:25:17.530Z,31.53
2022-11-26T07:27:46.609Z,40.23
2022-11-26T07:30:16.160Z,20.90
2022-11-26T07:32:45.241Z,29.40
2022-11-26T07:35:19.945Z,42.83
2022-11-26T07:37:49.045Z,34.30
2022-11-26T07:40:18.218Z,41.40
2022-11-26T07:42:52.907Z,24.00
2022-11-26T07:45:26.617Z,30.57
2022-11-26T07:47:55.704Z,31.23
2022-11-26T07:50:26.078Z,32.77
2022-11-26T07:52:55.140Z,32.60
2022-11-26T07:55:24.224Z,37.40
2022-11-26T07:57:53.322Z,20.47
2022-11-26T08:00:22.925Z,20.83
2022-11-26T08:02:52.028Z,24.30
2022-11-26T08:05:21.622Z,20.63
2022-11-26T08:07:52.492Z,37.23
2022-11-26T08:10:21.660Z,19.30
2022-11-26T08:12:51.981Z,25.07
2022-11-26T08:15:21.080Z,21.00
2022-11-26T08:17:50.155Z,20.13
2022-11-26T08:20:21.345Z,24.23
2022-11-26T08:22:54.891Z,22.37
2022-11-26T08:25:23.888Z,19.07
2022-11-26T08:27:53.031Z,24.87
2022-11-26T08:30:22.221Z,29.17
2022-11-26T08:32:51.291Z,25.10
2022-11-26T08:35:20.385Z,19.13
2022-11-26T08:37:49.442Z,22.93
2022-11-26T08:40:20.010Z,18.67
2022-11-26T08:42:49.063Z,24.37
2022-11-26T08:45:18.438Z,17.40
2022-11-26T08:47:47.545Z,25.23
2022-11-26T08:50:16.928Z,22.30
2022-11-26T08:52:46.032Z,30.17
2022-11-26T08:55:15.226Z,30.77
2022-11-26T08:57:47.376Z,19.17
2022-11-26T09:00:17.473Z,18.10
2022-11-26T09:02:46.610Z,29.87
2022-11-26T09:05:15.739Z,22.80
2022-11-26T09:07:48.905Z,23.03
2022-11-26T09:10:18.464Z,25.30
2022-11-26T09:12:48.921Z,27.10
2022-11-26T09:15:18.253Z,28.87
2022-11-26T09:17:47.296Z,23.93
2022-11-26T09:20:16.540Z,20.93
2022-11-26T09:22:45.896Z,26.07
2022-11-26T09:25:15.062Z,20.27
2022-11-26T09:27:44.075Z,20.37
2022-11-26T09:30:16.214Z,18.00
2022-11-26T09:32:45.334Z,22.87
2022-11-26T09:35:14.468Z,24.03
2022-11-26T09:37:48.667Z,16.83
2022-11-26T09:40:22.318Z,32.33
2022-11-26T09:43:00.311Z,18.17
2022-11-26T09:45:42.126Z,28.63
2022-11-26T09:48:18.430Z,20.47
2022-11-26T09:50:49.107Z,19.87
2022-11-26T09:53:21.988Z,23.27
2022-11-26T09:55:53.448Z,21.23
2022-11-26T09:58:28.908Z,21.40
2022-11-26T10:01:01.237Z,21.47
2022-11-26T10:03:35.225Z,23.77
2022-11-26T10:06:08.812Z,26.60
2022-11-26T10:09:02.629Z,19.23
2022-11-26T10:11:38.582Z,21.17
2022-11-26T10:14:19.937Z,26.23
2022-11-26T10:17:02.994Z,19.90
2022-11-26T10:19:43.752Z,13.87
2022-11-26T10:22:21.608Z,30.10
2022-11-26T10:24:52.431Z,22.53
2022-11-26T10:27:24.918Z,26.83
2022-11-26T10:29:58.415Z,25.20
2022-11-26T10:32:33.392Z,22.23
2022-11-26T10:35:02.691Z,31.87
2022-11-26T10:37:31.982Z,26.13
2022-11-26T10:40:17.563Z,34.07
2022-11-26T10:42:56.848Z,28.43
2022-11-26T10:45:35.890Z,26.57
2022-11-26T10:48:25.469Z,32.97
2022-11-26T10:51:01.001Z,31.20
2022-11-26T10:53:33.384Z,25.47
2022-11-26T10:56:06.965Z,35.93
2022-11-26T10:58:42.662Z,35.30
2022-11-26T11:01:14.251Z,29.43
2022-11-26T11:04:07.743Z,26.67
2022-11-26T11:06:42.213Z,33.20
2022-11-26T11:09:33.050Z,27.70
2022-11-26T11:12:21.821Z,25.70
2022-11-26T11:14:51.987Z,29.83
2022-11-26T11:17:32.506Z,44.50
2022-11-26T11:20:13.366Z,21.87
2022-11-26T11:22:43.231Z,27.30
2022-11-26T11:25:24.614Z,16.97
2022-11-26T11:28:00.767Z,22.90
2022-11-26T11:30:32.332Z,15.10
2022-11-26T11:33:13.917Z,14.50
2022-11-26T11:35:44.368Z,24.47
2022-11-26T11:38:24.402Z,15.00
2022-11-26T11:40:54.049Z,21.37
2022-11-26T11:43:24.808Z,29.07
2022-11-26T11:46:09.374Z,22.80
2022-11-26T11:48:49.399Z,18.13
2022-11-26T11:51:30.958Z,20.40
2022-11-26T11:54:13.536Z,21.27
2022-11-26T11:56:47.917Z,22.77
2022-11-26T11:59:58.348Z,20.33
2022-11-26T12:02:51.818Z,19.63
2022-11-26T12:05:39.092Z,25.60
2022-11-26T12:08:23.131Z,20.03
2022-11-26T12:11:07.883Z,21.07
2022-11-26T12:13:49.440Z,23.33
2022-11-26T12:16:21.942Z,25.47
2022-11-26T12:18:59.652Z,22.97
2022-11-26T12:21:37.584Z,20.83
2022-11-26T12:24:15.013Z,32.73
2022-11-26T12:26:49.555Z,23.23
2022-11-26T12:29:30.324Z,27.87
2022-11-26T12:32:06.332Z,24.00
2022-11-26T12:34:39.695Z,25.97
2022-11-26T12:37:18.393Z,24.90
2022-11-26T12:39:54.991Z,23.47
2022-11-26T12:42:31.847Z,35.23
2022-11-26T12:45:17.387Z,25.87
2022-11-26T12:47:54.385Z,31.53
2022-11-26T12:50:34.805Z,32.93
2022-11-26T12:53:18.348Z,27.27
2022-11-26T12:55:59.006Z,19.63
2022-11-26T12:58:45.611Z,23.73
2022-11-26T13:01:15.082Z,34.57
2022-11-26T13:03:44.446Z,24.33
2022-11-26T13:06:29.389Z,35.33
2022-11-26T13:09:08.809Z,24.67
2022-11-26T13:11:47.131Z,30.33
2022-11-26T13:14:27.144Z,31.30
2022-11-26T13:17:02.139Z,33.70
2022-11-26T13:19:37.041Z,33.20
2022-11-26T13:22:35.178Z,30.27
2022-11-26T13:25:41.891Z,41.80
2022-11-26T13:28:23.762Z,24.27
2022-11-26T13:31:15.053Z,23.73
2022-11-26T13:34:05.414Z,27.53
2022-11-26T13:37:13.298Z,26.47
2022-11-26T13:40:08.851Z,31.90
2022-11-26T13:43:04.981Z,30.67
2022-11-26T13:46:01.234Z,41.17
2022-11-26T13:48:37.413Z,41.43
2022-11-26T13:51:12.090Z,32.60
2022-11-26T13:53:48.483Z,38.90
2022-11-26T13:56:23.491Z,34.27
2022-11-26T13:58:56.806Z,34.60
2022-11-26T14:01:35.383Z,34.77
2022-11-26T14:04:07.691Z,32.03
2022-11-26T14:06:37.449Z,35.87
2022-11-26T14:09:07.311Z,32.17
2022-11-26T14:11:56.977Z,26.93
2022-11-26T14:14:40.130Z,39.77
2022-11-26T14:17:16.431Z,34.33
2022-11-26T14:20:02.618Z,30.97
2022-11-26T14:22:33.579Z,30.03
2022-11-26T14:25:05.683Z,28.10
2022-11-26T14:27:36.451Z,29.73
2022-11-26T14:30:28.197Z,20.83
2022-11-26T14:33:18.419Z,29.00
2022-11-26T14:35:56.770Z,20.50
2022-11-26T14:38:28.715Z,26.97
2022-11-26T14:41:00.302Z,22.63
2022-11-26T14:43:30.401Z,22.67
2022-11-26T14:46:06.673Z,22.53
2022-11-26T14:48:43.083Z,18.37
2022-11-26T14:51:12.310Z,31.27
2022-11-26T14:53:49.541Z,32.87
2022-11-26T14:56:20.530Z,27.20
2022-11-26T14:58:52.430Z,26.23
2022-11-26T15:01:24.219Z,28.40
2022-11-26T15:04:00.375Z,27.50
2022-11-26T15:06:34.801Z,30.03
2022-11-26T15:09:10.944Z,33.60
2022-11-26T15:12:00.662Z,39.23
2022-11-26T15:14:39.712Z,30.97
2022-11-26T15:17:13.163Z,46.17
2022-11-26T15:19:43.817Z,33.07
2022-11-26T15:22:22.674Z,45.13
2022-11-26T15:24:52.898Z,37.33
2022-11-26T15:27:31.307Z,38.70
2022-11-26T15:30:00.405Z,42.70
2022-11-26T15:32:31.619Z,36.20
2022-11-26T15:35:03.049Z,39.87
2022-11-26T15:37:32.127Z,38.30
2022-11-26T15:40:23.377Z,38.97
2022-11-26T15:42:58.134Z,36.83
2022-11-26T15:45:41.772Z,33.70
2022-11-26T15:48:27.543Z,34.43
2022-11-26T15:51:07.955Z,33.53
2022-11-26T15:53:40.276Z,35.07
2022-11-26T15:56:10.451Z,38.43
2022-11-26T15:58:43.307Z,31.07
2022-11-26T16:01:17.841Z,29.97
2022-11-26T16:03:49.408Z,31.60
2022-11-26T16:06:33.095Z,23.47
2022-11-26T16:09:27.689Z,35.57
2022-11-26T16:12:01.699Z,34.60
2022-11-26T16:14:34.827Z,29.53
2022-11-26T16:17:08.592Z,44.47
2022-11-26T16:19:43.273Z,36.80
2022-11-26T16:22:17.192Z,30.97
2022-11-26T16:24:46.769Z,40.03
2022-11-26T16:27:29.973Z,41.60
2022-11-26T16:30:02.515Z,35.30
2022-11-26T16:32:31.626Z,35.67
2022-11-26T16:35:12.243Z,39.17
2022-11-26T16:37:49.830Z,30.00
2022-11-26T16:40:19.992Z,35.53
2022-11-26T16:42:49.933Z,32.07
2022-11-26T16:45:20.865Z,45.37
2022-11-26T16:47:53.337Z,43.13
2022-11-26T16:50:24.675Z,40.83
2022-11-26T16:52:54.678Z,40.67
2022-11-26T16:55:26.840Z,40.47
2022-11-26T16:57:57.753Z,42.17
2022-11-26T17:00:28.579Z,44.63
2022-11-26T17:02:57.870Z,45.50
2022-11-26T17:05:27.058Z,45.37
2022-11-26T17:07:59.217Z,44.17
2022-11-26T17:10:30.255Z,45.00
2022-11-26T17:12:59.755Z,31.83
2022-11-26T17:15:30.202Z,40.67
2022-11-26T17:18:03.972Z,41.23
2022-11-26T17:20:33.067Z,43.77
2022-11-26T17:23:02.241Z,44.03
2022-11-26T17:25:31.295Z,52.70
2022-11-26T17:28:00.315Z,53.00
2022-11-26T17:30:30.943Z,44.00
2022-11-26T17:33:00.398Z,47.17
2022-11-26T17:35:29.459Z,51.33
2022-11-26T17:37:58.565Z,56.60
2022-11-26T17:40:28.853Z,54.27
2022-11-26T17:42:58.095Z,69.30
2022-11-26T17:45:27.523Z,53.43
2022-11-26T17:48:00.421Z,53.93
2022-11-26T17:50:30.769Z,52.03
2022-11-26T17:52:59.942Z,60.93
2022-11-26T17:55:29.307Z,68.17
2022-11-26T17:57:58.773Z,54.00
2022-11-26T18:00:30.084Z,60.17
2022-11-26T18:03:00.737Z,60.00
2022-11-26T18:05:29.862Z,50.23
2022-11-26T18:07:59.071Z,49.27
2022-11-26T18:10:28.513Z,51.67
2022-11-26T18:12:58.386Z,61.07
2022-11-26T18:15:28.346Z,52.73
2022-11-26T18:17:59.056Z,52.73
2022-11-26T18:20:29.891Z,53.13
2022-11-26T18:23:00.543Z,54.20
2022-11-26T18:25:30.589Z,46.97
2022-11-26T18:27:59.686Z,59.10
2022-11-26T18:30:30.460Z,48.40
2022-11-26T18:33:01.725Z,47.33
2022-11-26T18:35:31.122Z,50.73
2022-11-26T18:38:00.430Z,49.33
2022-11-26T18:40:29.553Z,47.50
2022-11-26T18:42:59.074Z,46.10
2022-11-26T18:45:28.247Z,52.03
2022-11-26T18:47:57.286Z,52.40
2022-11-26T18:50:27.860Z,47.97
2022-11-26T18:52:59.274Z,58.70
2022-11-26T18:55:28.504Z,59.60
2022-11-26T18:57:57.553Z,53.07
2022-11-26T19:00:26.786Z,45.33
2022-11-26T19:02:55.969Z,59.27
2022-11-26T19:05:25.216Z,66.17
2022-11-26T19:07:55.687Z,45.17
2022-11-26T19:10:24.964Z,54.37
2022-11-26T19:12:54.327Z,56.60
2022-11-26T19:15:23.442Z,52.87
2022-11-26T19:17:52.783Z,58.37
2022-11-26T19:20:21.949Z,55.83
2022-11-26T19:22:51.276Z,51.13
2022-11-26T19:25:21.958Z,50.27
2022-11-26T19:27:51.092Z,56.60
2022-11-26T19:30:20.576Z,56.27
2022-11-26T19:32:50.199Z,56.43
2022-11-26T19:35:19.639Z,58.07
2022-11-26T19:37:49.141Z,49.23
2022-11-26T19:40:18.469Z,46.00
2022-11-26T19:42:49.351Z,50.63
2022-11-26T19:45:18.784Z,47.93
2022-11-26T19:47:47.994Z,55.83
2022-11-26T19:50:17.554Z,54.67
2022-11-26T19:52:48.152Z,49.17
2022-11-26T19:55:17.504Z,54.90
2022-11-26T19:57:48.275Z,47.93
2022-11-26T20:00:17.857Z,51.90
2022-11-26T20:02:47.186Z,62.30
2022-11-26T20:05:16.775Z,46.33
2022-11-26T20:07:46.382Z,45.97
2022-11-26T20:10:16.555Z,50.53
2022-11-26T20:12:45.800Z,50.97
2022-11-26T20:15:16.699Z,41.47
2022-11-26T20:17:45.988Z,42.13
2022-11-26T20:20:16.600Z,41.43
2022-11-26T20:22:45.712Z,52.93
2022-11-26T20:25:15.665Z,55.37
2022-11-26T20:27:45.092Z,58.80
2022-11-26T20:30:16.172Z,49.07
2022-11-26T20:32:45.530Z,63.00
2022-11-26T20:35:14.676Z,47.33
2022-11-26T20:37:43.855Z,63.87
2022-11-26T20:40:13.360Z,45.03
2022-11-26T20:42:45.404Z,59.53
2022-11-26T20:45:16.245Z,63.67
2022-11-26T20:47:45.395Z,53.30
2022-11-26T20:50:14.983Z,55.10
2022-11-26T20:52:44.180Z,65.97
2022-11-26T20:55:13.509Z,73.00
2022-11-26T20:57:42.712Z,67.10
2022-11-26T21:00:16.933Z,55.33
2022-11-26T21:02:48.034Z,49.93
2022-11-26T21:05:17.578Z,59.00
2022-11-26T21:07:46.761Z,65.67
2022-11-26T21:10:16.369Z,71.60
2022-11-26T21:12:45.521Z,55.37
2022-11-26T21:15:14.561Z,59.87
2022-11-26T21:17:43.968Z,56.50
2022-11-26T21:20:15.628Z,46.97
2022-11-26T21:22:44.830Z,47.43
2022-11-26T21:25:13.979Z,70.80
2022-11-26T21:27:43.217Z,74.73
2022-11-26T21:30:13.460Z,59.07
2022-11-26T21:32:42.594Z,41.17
2022-11-26T21:35:13.120Z,65.57
2022-11-26T21:37:42.338Z,50.47
2022-11-26T21:40:12.739Z,74.03
2022-11-26T21:42:41.814Z,57.20
2022-11-26T21:45:11.560Z,58.00
2022-11-26T21:47:40.604Z,51.67
2022-11-26T21:50:10.933Z,66.77
2022-11-26T21:52:41.448Z,60.40
2022-11-26T21:55:11.168Z,52.37
2022-11-26T21:57:40.227Z,45.70
2022-11-26T22:00:10.646Z,56.70
2022-11-26T22:02:39.917Z,52.50
2022-11-26T22:05:09.539Z,56.93
2022-11-26T22:07:40.143Z,52.13
2022-11-26T22:10:10.889Z,47.10
2022-11-26T22:12:39.948Z,64.73
2022-11-26T22:15:09.860Z,55.27
2022-11-26T22:17:39.233Z,58.43
2022-11-26T22:20:09.916Z,55.40
2022-11-26T22:22:40.400Z,53.60
2022-11-26T22:25:10.057Z,62.83
2022-11-26T22:27:39.711Z,43.10
2022-11-26T22:30:09.777Z,51.60
2022-11-26T22:32:38.923Z,41.10
2022-11-26T22:35:08.867Z,49.70
2022-11-26T22:37:38.173Z,39.27
2022-11-26T22:40:10.650Z,51.20
2022-11-26T22:42:41.943Z,46.93
2022-11-26T22:45:12.266Z,38.83
2022-11-26T22:47:41.312Z,40.97
2022-11-26T22:50:11.149Z,40.10
2022-11-26T22:52:40.384Z,42.83
2022-11-26T22:55:11.252Z,36.43
2022-11-26T22:57:40.335Z,41.90
2022-11-26T23:00:13.556Z,39.80
2022-11-26T23:02:42.742Z,41.43
2022-11-26T23:05:12.298Z,55.53
2022-11-26T23:07:41.389Z,49.50
2022-11-26T23:10:13.106Z,50.70
2022-11-26T23:12:42.194Z,43.77
2022-11-26T23:15:12.119Z,45.83
2022-11-26T23:17:41.416Z,39.00
2022-11-26T23:20:11.157Z,34.90
2022-11-26T23:22:40.334Z,46.37
2022-11-26T23:25:12.327Z,32.97
2022-11-26T23:27:41.531Z,34.73
2022-11-26T23:30:11.628Z,36.23
2022-11-26T23:32:40.777Z,36.17
2022-11-26T23:35:10.528Z,40.63
2022-11-26T23:37:40.160Z,43.47
2022-11-26T23:40:11.506Z,37.23
2022-11-26T23:42:42.068Z,47.67
2022-11-26T23:45:11.745Z,38.07
2022-11-26T23:47:40.804Z,38.13
2022-11-26T23:50:10.428Z,45.10
2022-11-26T23:52:39.503Z,37.10
2022-11-26T23:55:09.814Z,43.17
2022-11-26T23:57:38.909Z,37.90
